createdAt,value
2023-03-29T00:00:08.380Z,433.00
2023-03-29T00:01:08.360Z,433.00
2023-03-29T00:02:08.399Z,432.00
2023-03-29T00:03:08.588Z,435.00
2023-03-29T00:04:08.417Z,433.00
2023-03-29T00:05:08.337Z,433.00
2023-03-29T00:06:08.338Z,433.00
2023-03-29T00:07:08.345Z,436.00
2023-03-29T00:08:08.324Z,434.00
2023-03-29T00:09:08.314Z,435.00
2023-03-29T00:10:08.316Z,434.00
2023-03-29T00:11:08.310Z,436.00
2023-03-29T00:12:08.305Z,438.00
2023-03-29T00:13:08.289Z,437.00
2023-03-29T00:14:08.283Z,438.00
2023-03-29T00:15:08.306Z,437.00
2023-03-29T00:16:08.285Z,435.00
2023-03-29T00:17:08.329Z,439.00
2023-03-29T00:18:08.278Z,439.00
2023-03-29T00:19:08.247Z,438.00
2023-03-29T00:20:08.259Z,435.00
2023-03-29T00:21:08.256Z,436.00
2023-03-29T00:22:08.238Z,437.00
2023-03-29T00:23:08.231Z,435.00
2023-03-29T00:24:08.216Z,435.00
2023-03-29T00:25:08.276Z,434.00
2023-03-29T00:26:08.523Z,432.00
2023-03-29T00:27:08.217Z,431.00
2023-03-29T00:28:08.211Z,431.00
2023-03-29T00:29:08.204Z,427.00
2023-03-29T00:30:08.197Z,427.00
2023-03-29T00:31:08.256Z,427.00
2023-03-29T00:32:08.187Z,425.00
2023-03-29T00:33:08.233Z,425.00
2023-03-29T00:34:08.153Z,427.00
2023-03-29T00:35:08.149Z,427.00
2023-03-29T00:36:08.180Z,427.00
2023-03-29T00:37:08.159Z,427.00
2023-03-29T00:38:08.118Z,427.00
2023-03-29T00:39:08.115Z,427.00
2023-03-29T00:40:08.112Z,429.00
2023-03-29T00:41:08.105Z,432.00
2023-03-29T00:42:08.118Z,433.00
2023-03-29T00:43:08.133Z,431.00
2023-03-29T00:44:08.099Z,431.00
2023-03-29T00:45:08.100Z,431.00
2023-03-29T00:46:08.152Z,429.00
2023-03-29T00:47:08.077Z,429.00
2023-03-29T00:48:08.138Z,428.00
2023-03-29T00:49:08.076Z,428.00
2023-03-29T00:50:08.050Z,428.00
2023-03-29T00:51:09.877Z,429.00
2023-03-29T00:52:08.023Z,428.00
2023-03-29T00:53:08.041Z,427.00
2023-03-29T00:54:08.027Z,428.00
2023-03-29T00:55:08.021Z,428.00
2023-03-29T00:56:07.998Z,428.00
2023-03-29T00:57:08.013Z,429.00
2023-03-29T00:58:07.998Z,429.00
2023-03-29T00:59:08.001Z,433.00
2023-03-29T01:00:07.993Z,435.00
2023-03-29T01:01:07.985Z,439.00
2023-03-29T01:02:08.014Z,436.00
2023-03-29T01:03:08.104Z,436.00
2023-03-29T01:04:08.012Z,435.00
2023-03-29T01:05:07.949Z,437.00
2023-03-29T01:06:07.969Z,436.00
2023-03-29T01:07:08.013Z,436.00
2023-03-29T01:08:07.939Z,437.00
2023-03-29T01:09:07.945Z,436.00
2023-03-29T01:10:07.932Z,435.00
2023-03-29T01:11:07.925Z,433.00
2023-03-29T01:12:07.926Z,437.00
2023-03-29T01:13:07.913Z,437.00
2023-03-29T01:14:07.898Z,436.00
2023-03-29T01:15:07.905Z,436.00
2023-03-29T01:16:07.939Z,436.00
2023-03-29T01:17:07.888Z,437.00
2023-03-29T01:18:07.904Z,439.00
2023-03-29T01:19:07.877Z,440.00
2023-03-29T01:20:07.858Z,439.00
2023-03-29T01:21:07.855Z,436.00
2023-03-29T01:22:07.846Z,436.00
2023-03-29T01:23:07.834Z,435.00
2023-03-29T01:24:07.849Z,435.00
2023-03-29T01:25:07.852Z,437.00
2023-03-29T01:26:07.832Z,438.00
2023-03-29T01:27:07.834Z,436.00
2023-03-29T01:28:07.834Z,436.00
2023-03-29T01:29:07.839Z,435.00
2023-03-29T01:30:07.829Z,435.00
2023-03-29T01:31:07.834Z,435.00
2023-03-29T01:32:07.926Z,436.00
2023-03-29T01:33:07.914Z,435.00
2023-03-29T01:34:07.817Z,433.00
2023-03-29T01:35:07.840Z,433.00
2023-03-29T01:36:07.896Z,432.00
2023-03-29T01:37:07.841Z,433.00
2023-03-29T01:38:07.830Z,435.00
2023-03-29T01:39:07.817Z,437.00
2023-03-29T01:40:07.833Z,437.00
2023-03-29T01:41:07.814Z,438.00
2023-03-29T01:42:07.795Z,437.00
2023-03-29T01:43:07.814Z,436.00
2023-03-29T01:44:07.793Z,436.00
2023-03-29T01:45:07.809Z,438.00
2023-03-29T01:46:07.811Z,439.00
2023-03-29T01:47:07.776Z,438.00
2023-03-29T01:48:07.774Z,436.00
2023-03-29T01:49:07.763Z,432.00
2023-03-29T01:50:07.778Z,435.00
2023-03-29T01:51:07.760Z,434.00
2023-03-29T01:52:07.760Z,434.00
2023-03-29T01:53:07.774Z,434.00
2023-03-29T01:54:07.767Z,434.00
2023-03-29T01:55:07.763Z,434.00
2023-03-29T01:56:07.756Z,435.00
2023-03-29T01:57:07.783Z,432.00
2023-03-29T01:58:07.724Z,430.00
2023-03-29T01:59:07.726Z,430.00
2023-03-29T02:00:07.721Z,430.00
2023-03-29T02:01:07.798Z,430.00
2023-03-29T02:02:07.794Z,429.00
2023-03-29T02:03:07.847Z,431.00
2023-03-29T02:04:07.710Z,433.00
2023-03-29T02:05:07.721Z,431.00
2023-03-29T02:06:07.711Z,428.00
2023-03-29T02:07:07.697Z,425.00
2023-03-29T02:08:07.702Z,425.00
2023-03-29T02:09:07.734Z,423.00
2023-03-29T02:10:07.711Z,422.00
2023-03-29T02:11:07.744Z,424.00
2023-03-29T02:12:07.719Z,427.00
2023-03-29T02:13:07.721Z,426.00
2023-03-29T02:14:07.720Z,425.00
2023-03-29T02:15:07.712Z,427.00
2023-03-29T02:16:07.734Z,425.00
2023-03-29T02:17:07.709Z,424.00
2023-03-29T02:18:07.780Z,423.00
2023-03-29T02:19:07.819Z,426.00
2023-03-29T02:20:07.708Z,425.00
2023-03-29T02:21:07.693Z,427.00
2023-03-29T02:22:07.683Z,427.00
2023-03-29T02:23:07.682Z,429.00
2023-03-29T02:24:07.692Z,432.00
2023-03-29T02:25:07.681Z,433.00
2023-03-29T02:26:07.675Z,432.00
2023-03-29T02:27:07.686Z,431.00
2023-03-29T02:28:07.648Z,431.00
2023-03-29T02:29:07.666Z,431.00
2023-03-29T02:30:07.681Z,433.00
2023-03-29T02:31:07.682Z,432.00
2023-03-29T02:32:07.657Z,432.00
2023-03-29T02:33:07.689Z,432.00
2023-03-29T02:34:07.704Z,430.00
2023-03-29T02:35:07.748Z,431.00
2023-03-29T02:36:07.787Z,433.00
2023-03-29T02:37:07.706Z,434.00
2023-03-29T02:38:07.745Z,431.00
2023-03-29T02:39:07.713Z,431.00
2023-03-29T02:40:07.712Z,431.00
2023-03-29T02:41:07.702Z,432.00
2023-03-29T02:42:07.707Z,433.00
2023-03-29T02:43:07.752Z,432.00
2023-03-29T02:44:07.740Z,431.00
2023-03-29T02:45:07.748Z,429.00
2023-03-29T02:46:07.806Z,429.00
2023-03-29T02:47:07.748Z,428.00
2023-03-29T02:48:07.828Z,429.00
2023-03-29T02:49:07.753Z,429.00
2023-03-29T02:50:07.741Z,427.00
2023-03-29T02:51:07.754Z,426.00
2023-03-29T02:52:07.851Z,427.00
2023-03-29T02:53:07.749Z,426.00
2023-03-29T02:54:07.732Z,428.00
2023-03-29T02:55:07.727Z,429.00
2023-03-29T02:56:07.722Z,428.00
2023-03-29T02:57:07.775Z,428.00
2023-03-29T02:58:07.734Z,429.00
2023-03-29T02:59:07.718Z,433.00
2023-03-29T03:00:07.722Z,434.00
2023-03-29T03:01:07.758Z,433.00
2023-03-29T03:02:07.785Z,435.00
2023-03-29T03:03:07.953Z,436.00
2023-03-29T03:04:07.769Z,437.00
2023-03-29T03:05:07.744Z,435.00
2023-03-29T03:06:07.721Z,433.00
2023-03-29T03:07:07.716Z,431.00
2023-03-29T03:08:07.756Z,430.00
2023-03-29T03:09:07.797Z,432.00
2023-03-29T03:10:07.779Z,435.00
2023-03-29T03:11:07.796Z,435.00
2023-03-29T03:12:07.840Z,436.00
2023-03-29T03:13:07.834Z,436.00
2023-03-29T03:14:07.839Z,437.00
2023-03-29T03:15:07.843Z,438.00
2023-03-29T03:16:07.939Z,437.00
2023-03-29T03:17:07.855Z,437.00
2023-03-29T03:18:07.946Z,437.00
2023-03-29T03:19:07.913Z,436.00
2023-03-29T03:20:07.934Z,436.00
2023-03-29T03:21:07.961Z,435.00
2023-03-29T03:22:08.037Z,434.00
2023-03-29T03:23:08.012Z,435.00
2023-03-29T03:24:08.019Z,435.00
2023-03-29T03:25:08.054Z,437.00
2023-03-29T03:26:08.088Z,433.00
2023-03-29T03:27:08.117Z,431.00
2023-03-29T03:28:08.145Z,432.00
2023-03-29T03:29:08.211Z,433.00
2023-03-29T03:30:08.224Z,434.00
2023-03-29T03:31:08.320Z,436.00
2023-03-29T03:32:08.420Z,437.00
2023-03-29T03:33:08.349Z,436.00
2023-03-29T03:34:08.363Z,438.00
2023-03-29T03:35:08.393Z,436.00
2023-03-29T03:36:08.468Z,438.00
2023-03-29T03:37:08.477Z,440.00
2023-03-29T03:38:08.486Z,437.00
2023-03-29T03:39:08.526Z,437.00
2023-03-29T03:40:08.542Z,435.00
2023-03-29T03:41:08.550Z,437.00
2023-03-29T03:42:08.668Z,436.00
2023-03-29T03:43:08.631Z,436.00
2023-03-29T03:44:08.660Z,436.00
2023-03-29T03:45:08.662Z,436.00
2023-03-29T03:46:08.764Z,437.00
2023-03-29T03:47:08.733Z,436.00
2023-03-29T03:48:08.801Z,433.00
2023-03-29T03:49:08.797Z,433.00
2023-03-29T03:50:08.827Z,433.00
2023-03-29T03:51:08.861Z,430.00
2023-03-29T03:52:08.866Z,429.00
2023-03-29T03:53:08.880Z,430.00
2023-03-29T03:54:08.899Z,430.00
2023-03-29T03:55:08.941Z,430.00
2023-03-29T03:56:09.164Z,431.00
2023-03-29T03:57:09.123Z,433.00
2023-03-29T03:58:09.025Z,434.00
2023-03-29T03:59:09.074Z,434.00
2023-03-29T04:00:09.098Z,430.00
2023-03-29T04:01:09.114Z,429.00
2023-03-29T04:02:09.159Z,429.00
2023-03-29T04:03:09.334Z,429.00
2023-03-29T04:04:09.234Z,428.00
2023-03-29T04:05:09.198Z,429.00
2023-03-29T04:06:09.247Z,429.00
2023-03-29T04:07:09.293Z,428.00
2023-03-29T04:08:09.329Z,432.00
2023-03-29T04:09:09.380Z,433.00
2023-03-29T04:10:09.399Z,434.00
2023-03-29T04:11:09.440Z,436.00
2023-03-29T04:12:09.493Z,438.00
2023-03-29T04:13:09.525Z,436.00
2023-03-29T04:14:09.595Z,436.00
2023-03-29T04:15:09.630Z,437.00
2023-03-29T04:16:09.728Z,436.00
2023-03-29T04:17:09.708Z,435.00
2023-03-29T04:18:09.823Z,436.00
2023-03-29T04:19:09.788Z,438.00
2023-03-29T04:20:09.823Z,440.00
2023-03-29T04:21:09.854Z,441.00
2023-03-29T04:22:09.909Z,441.00
2023-03-29T04:23:09.940Z,441.00
2023-03-29T04:24:10.017Z,440.00
2023-03-29T04:25:10.105Z,439.00
2023-03-29T04:26:10.118Z,438.00
2023-03-29T04:27:10.117Z,439.00
2023-03-29T04:28:10.176Z,439.00
2023-03-29T04:29:10.200Z,440.00
2023-03-29T04:30:10.249Z,441.00
2023-03-29T04:31:10.352Z,442.00
2023-03-29T04:32:10.297Z,441.00
2023-03-29T04:33:10.447Z,443.00
2023-03-29T04:34:10.344Z,440.00
2023-03-29T04:35:10.410Z,439.00
2023-03-29T04:36:10.470Z,438.00
2023-03-29T04:37:10.578Z,439.00
2023-03-29T04:38:10.504Z,437.00
2023-03-29T04:39:10.546Z,438.00
2023-03-29T04:40:10.580Z,438.00
2023-03-29T04:41:10.614Z,437.00
2023-03-29T04:42:10.672Z,436.00
2023-03-29T04:43:10.707Z,434.00
2023-03-29T04:44:10.725Z,432.00
2023-03-29T04:45:10.872Z,433.00
2023-03-29T04:46:10.885Z,433.00
2023-03-29T04:47:10.848Z,434.00
2023-03-29T04:48:10.937Z,433.00
2023-03-29T04:49:10.952Z,433.00
2023-03-29T04:50:11.002Z,435.00
2023-03-29T04:51:11.060Z,435.00
2023-03-29T04:52:11.095Z,437.00
2023-03-29T04:53:11.167Z,437.00
2023-03-29T04:54:11.240Z,438.00
2023-03-29T04:55:11.269Z,442.00
2023-03-29T04:56:11.314Z,445.00
2023-03-29T04:57:11.428Z,446.00
2023-03-29T04:58:11.434Z,447.00
2023-03-29T04:59:11.509Z,451.00
2023-03-29T05:00:11.547Z,451.00
2023-03-29T05:01:11.609Z,452.00
2023-03-29T05:02:11.670Z,454.00
2023-03-29T05:03:11.737Z,461.00
2023-03-29T05:04:12.853Z,466.00
2023-03-29T05:05:11.663Z,468.00
2023-03-29T05:06:11.681Z,466.00
2023-03-29T05:07:11.709Z,464.00
2023-03-29T05:08:11.746Z,463.00
2023-03-29T05:09:11.825Z,461.00
2023-03-29T05:10:11.878Z,460.00
2023-03-29T05:11:11.923Z,457.00
2023-03-29T05:12:12.011Z,457.00
2023-03-29T05:13:12.072Z,455.00
2023-03-29T05:14:12.129Z,453.00
2023-03-29T05:15:12.175Z,453.00
2023-03-29T05:16:12.262Z,452.00
2023-03-29T05:17:12.306Z,451.00
2023-03-29T05:18:12.390Z,450.00
2023-03-29T05:19:12.402Z,451.00
2023-03-29T05:20:12.477Z,453.00
2023-03-29T05:21:12.498Z,455.00
2023-03-29T05:22:12.568Z,457.00
2023-03-29T05:23:12.589Z,467.00
2023-03-29T05:24:12.654Z,471.00
2023-03-29T05:25:12.718Z,477.00
2023-03-29T05:26:12.767Z,479.00
2023-03-29T05:27:12.837Z,478.00
2023-03-29T05:28:12.855Z,479.00
2023-03-29T05:29:12.928Z,491.00
2023-03-29T05:30:13.338Z,513.00
2023-03-29T05:31:14.202Z,520.00
2023-03-29T05:32:13.066Z,528.00
2023-03-29T05:33:13.086Z,552.00
2023-03-29T05:34:13.036Z,559.00
2023-03-29T05:35:13.016Z,571.00
2023-03-29T05:36:13.037Z,571.00
2023-03-29T05:37:13.013Z,569.00
2023-03-29T05:38:12.991Z,571.00
2023-03-29T05:39:13.000Z,575.00
2023-03-29T05:40:13.343Z,567.00
2023-03-29T05:41:12.973Z,570.00
2023-03-29T05:42:12.987Z,647.00
2023-03-29T05:43:12.976Z,648.00
2023-03-29T05:44:12.969Z,659.00
2023-03-29T05:45:12.958Z,746.00
2023-03-29T05:46:12.975Z,784.00
2023-03-29T05:47:12.945Z,808.00
2023-03-29T05:48:12.944Z,847.00
2023-03-29T05:49:12.932Z,903.00
2023-03-29T05:50:12.920Z,936.00
2023-03-29T05:51:12.939Z,951.00
2023-03-29T05:52:12.905Z,946.00
2023-03-29T05:53:12.913Z,949.00
2023-03-29T05:54:12.906Z,931.00
2023-03-29T05:55:12.887Z,924.00
2023-03-29T05:56:12.901Z,908.00
2023-03-29T05:57:12.894Z,914.00
2023-03-29T05:58:12.866Z,966.00
2023-03-29T05:59:12.858Z,882.00
2023-03-29T06:00:12.853Z,873.00
2023-03-29T06:01:12.872Z,924.00
2023-03-29T06:02:12.873Z,920.00
2023-03-29T06:03:20.274Z,918.00
2023-03-29T06:04:13.926Z,922.00
2023-03-29T06:05:12.835Z,920.00
2023-03-29T06:06:12.834Z,899.00
2023-03-29T06:07:12.833Z,889.00
2023-03-29T06:08:12.810Z,923.00
2023-03-29T06:09:12.808Z,881.00
2023-03-29T06:10:12.789Z,893.00
2023-03-29T06:11:12.794Z,898.00
2023-03-29T06:12:12.803Z,951.00
2023-03-29T06:13:12.791Z,810.00
2023-03-29T06:14:12.769Z,940.00
2023-03-29T06:15:12.773Z,958.00
2023-03-29T06:16:12.760Z,957.00
2023-03-29T06:17:12.779Z,935.00
2023-03-29T06:18:12.840Z,934.00
2023-03-29T06:19:12.740Z,922.00
2023-03-29T06:20:12.753Z,890.00
2023-03-29T06:21:12.773Z,906.00
2023-03-29T06:22:14.766Z,959.00
2023-03-29T06:23:12.767Z,953.00
2023-03-29T06:24:12.771Z,955.00
2023-03-29T06:25:12.779Z,944.00
2023-03-29T06:26:12.796Z,944.00
2023-03-29T06:27:12.781Z,952.00
2023-03-29T06:28:12.781Z,955.00
2023-03-29T06:29:12.769Z,962.00
2023-03-29T06:30:12.788Z,895.00
2023-03-29T06:31:12.826Z,934.00
2023-03-29T06:32:12.869Z,796.00
2023-03-29T06:33:12.779Z,678.00
2023-03-29T06:34:12.807Z,652.00
2023-03-29T06:35:12.839Z,666.00
2023-03-29T06:36:12.885Z,668.00
2023-03-29T06:37:12.890Z,762.00
2023-03-29T06:38:12.947Z,751.00
2023-03-29T06:39:12.972Z,751.00
2023-03-29T06:40:13.003Z,764.00
2023-03-29T06:41:13.039Z,884.00
2023-03-29T06:42:21.022Z,866.00
2023-03-29T06:43:14.048Z,881.00
2023-03-29T06:44:13.026Z,903.00
2023-03-29T06:45:13.029Z,892.00
2023-03-29T06:46:13.400Z,907.00
2023-03-29T06:47:13.344Z,920.00
2023-03-29T06:48:13.128Z,964.00
2023-03-29T06:49:13.170Z,852.00
2023-03-29T06:50:13.205Z,754.00
2023-03-29T06:51:13.260Z,733.00
2023-03-29T06:52:13.348Z,814.00
2023-03-29T06:53:13.349Z,853.00
2023-03-29T06:54:13.378Z,872.00
2023-03-29T06:55:13.398Z,909.00
2023-03-29T06:56:13.443Z,912.00
2023-03-29T06:57:13.896Z,918.00
2023-03-29T06:58:13.466Z,928.00
2023-03-29T06:59:13.543Z,926.00
2023-03-29T07:00:13.513Z,903.00
2023-03-29T07:01:13.505Z,907.00
2023-03-29T07:02:13.596Z,971.00
2023-03-29T07:03:13.623Z,990.00
2023-03-29T07:04:13.565Z,865.00
2023-03-29T07:05:13.533Z,680.00
2023-03-29T07:06:13.558Z,656.00
2023-03-29T07:07:13.872Z,667.00
2023-03-29T07:08:13.906Z,651.00
2023-03-29T07:09:13.669Z,659.00
2023-03-29T07:10:13.725Z,666.00
2023-03-29T07:11:13.763Z,669.00
2023-03-29T07:12:14.048Z,667.00
2023-03-29T07:13:13.898Z,672.00
2023-03-29T07:14:13.960Z,702.00
2023-03-29T07:15:14.014Z,704.00
2023-03-29T07:16:14.137Z,765.00
2023-03-29T07:17:14.111Z,772.00
2023-03-29T07:18:14.154Z,721.00
2023-03-29T07:19:14.189Z,736.00
2023-03-29T07:20:14.234Z,735.00
2023-03-29T07:21:14.245Z,798.00
2023-03-29T07:22:14.287Z,816.00
2023-03-29T07:23:14.318Z,816.00
2023-03-29T07:24:14.365Z,818.00
2023-03-29T07:25:14.405Z,828.00
2023-03-29T07:26:14.439Z,813.00
2023-03-29T07:27:15.886Z,821.00
2023-03-29T07:28:14.957Z,824.00
2023-03-29T07:29:14.434Z,700.00
2023-03-29T07:30:14.415Z,609.00
2023-03-29T07:31:14.401Z,595.00
2023-03-29T07:32:14.433Z,594.00
2023-03-29T07:33:14.994Z,603.00
2023-03-29T07:34:14.454Z,648.00
2023-03-29T07:35:14.613Z,682.00
2023-03-29T07:36:14.548Z,688.00
2023-03-29T07:37:14.878Z,739.00
2023-03-29T07:38:14.534Z,770.00
2023-03-29T07:39:14.539Z,750.00
2023-03-29T07:40:14.537Z,750.00
2023-03-29T07:41:14.605Z,789.00
2023-03-29T07:42:14.663Z,803.00
2023-03-29T07:43:14.704Z,800.00
2023-03-29T07:44:14.715Z,846.00
2023-03-29T07:45:14.763Z,857.00
2023-03-29T07:46:14.782Z,836.00
2023-03-29T07:47:14.736Z,848.00
2023-03-29T07:48:14.796Z,836.00
2023-03-29T07:49:14.890Z,865.00
2023-03-29T07:50:14.863Z,890.00
2023-03-29T07:51:14.913Z,939.00
2023-03-29T07:52:14.978Z,957.00
2023-03-29T07:53:15.018Z,961.00
2023-03-29T07:54:15.062Z,962.00
2023-03-29T07:55:15.366Z,977.00
2023-03-29T07:56:15.128Z,975.00
2023-03-29T07:57:15.173Z,957.00
2023-03-29T07:58:15.173Z,954.00
2023-03-29T07:59:15.190Z,954.00
2023-03-29T08:00:15.443Z,951.00
2023-03-29T08:01:17.175Z,952.00
2023-03-29T08:02:15.204Z,956.00
2023-03-29T08:03:15.360Z,956.00
2023-03-29T08:04:15.235Z,945.00
2023-03-29T08:05:18.990Z,950.00
2023-03-29T08:06:16.178Z,960.00
2023-03-29T08:07:17.637Z,971.00
2023-03-29T08:08:15.156Z,976.00
2023-03-29T08:09:15.169Z,977.00
2023-03-29T08:10:15.146Z,976.00
2023-03-29T08:11:15.139Z,977.00
2023-03-29T08:12:15.163Z,984.00
2023-03-29T08:13:15.135Z,977.00
2023-03-29T08:14:15.130Z,955.00
2023-03-29T08:15:15.392Z,638.00
2023-03-29T08:16:15.183Z,577.00
2023-03-29T08:17:15.095Z,571.00
2023-03-29T08:18:15.141Z,565.00
2023-03-29T08:19:15.083Z,570.00
2023-03-29T08:20:15.408Z,646.00
2023-03-29T08:21:15.087Z,655.00
2023-03-29T08:22:15.089Z,598.00
2023-03-29T08:23:15.057Z,604.00
2023-03-29T08:24:15.083Z,647.00
2023-03-29T08:25:15.426Z,694.00
2023-03-29T08:26:15.057Z,688.00
2023-03-29T08:27:15.035Z,699.00
2023-03-29T08:28:15.406Z,726.00
2023-03-29T08:29:15.029Z,757.00
2023-03-29T08:30:15.039Z,857.00
2023-03-29T08:31:15.046Z,869.00
2023-03-29T08:32:15.012Z,876.00
2023-03-29T08:33:15.110Z,881.00
2023-03-29T08:34:15.004Z,884.00
2023-03-29T08:35:15.001Z,892.00
2023-03-29T08:36:15.061Z,868.00
2023-03-29T08:37:15.009Z,863.00
2023-03-29T08:38:15.013Z,870.00
2023-03-29T08:39:15.836Z,887.00
2023-03-29T08:40:14.953Z,899.00
2023-03-29T08:41:14.958Z,907.00
2023-03-29T08:42:14.937Z,909.00
2023-03-29T08:43:15.394Z,908.00
2023-03-29T08:44:14.929Z,873.00
2023-03-29T08:45:14.936Z,730.00
2023-03-29T08:46:15.061Z,643.00
2023-03-29T08:47:15.066Z,607.00
2023-03-29T08:48:15.115Z,591.00
2023-03-29T08:49:15.185Z,596.00
2023-03-29T08:50:15.215Z,594.00
2023-03-29T08:51:15.265Z,668.00
2023-03-29T08:52:15.327Z,666.00
2023-03-29T08:53:15.422Z,674.00
2023-03-29T08:54:15.458Z,677.00
2023-03-29T08:55:15.543Z,680.00
2023-03-29T08:56:15.592Z,692.00
2023-03-29T08:57:15.686Z,695.00
2023-03-29T08:58:15.731Z,694.00
2023-03-29T08:59:15.760Z,695.00
2023-03-29T09:00:15.834Z,698.00
2023-03-29T09:01:15.979Z,701.00
2023-03-29T09:02:15.992Z,700.00
2023-03-29T09:03:16.128Z,697.00
2023-03-29T09:04:16.061Z,696.00
2023-03-29T09:05:16.082Z,697.00
2023-03-29T09:06:16.130Z,698.00
2023-03-29T09:07:16.139Z,696.00
2023-03-29T09:08:16.173Z,693.00
2023-03-29T09:09:16.223Z,694.00
2023-03-29T09:10:16.248Z,694.00
2023-03-29T09:11:16.325Z,694.00
2023-03-29T09:12:16.336Z,696.00
2023-03-29T09:13:16.486Z,693.00
2023-03-29T09:14:16.453Z,688.00
2023-03-29T09:15:16.524Z,685.00
2023-03-29T09:16:16.620Z,683.00
2023-03-29T09:17:16.648Z,686.00
2023-03-29T09:18:17.014Z,689.00
2023-03-29T09:19:16.740Z,692.00
2023-03-29T09:20:16.845Z,694.00
2023-03-29T09:21:16.879Z,694.00
2023-03-29T09:22:17.021Z,696.00
2023-03-29T09:23:17.413Z,700.00
2023-03-29T09:24:17.085Z,702.00
2023-03-29T09:25:17.111Z,700.00
2023-03-29T09:26:17.226Z,708.00
2023-03-29T09:27:17.262Z,699.00
2023-03-29T09:28:17.410Z,687.00
2023-03-29T09:29:17.368Z,677.00
2023-03-29T09:30:17.408Z,665.00
2023-03-29T09:31:17.543Z,654.00
2023-03-29T09:32:17.516Z,650.00
2023-03-29T09:33:17.917Z,684.00
2023-03-29T09:34:17.605Z,702.00
2023-03-29T09:35:17.667Z,731.00
2023-03-29T09:36:17.708Z,734.00
2023-03-29T09:37:17.710Z,747.00
2023-03-29T09:38:17.756Z,770.00
2023-03-29T09:39:17.778Z,791.00
2023-03-29T09:40:17.847Z,822.00
2023-03-29T09:41:17.775Z,843.00
2023-03-29T09:42:17.806Z,865.00
2023-03-29T09:43:17.778Z,872.00
2023-03-29T09:44:30.301Z,870.00
2023-03-29T09:45:18.786Z,845.00
2023-03-29T09:46:17.870Z,846.00
2023-03-29T09:47:17.765Z,840.00
2023-03-29T09:48:17.933Z,819.00
2023-03-29T09:49:17.783Z,818.00
2023-03-29T09:50:30.271Z,820.00
2023-03-29T09:51:18.726Z,821.00
2023-03-29T09:52:17.730Z,815.00
2023-03-29T09:53:17.742Z,797.00
2023-03-29T09:54:17.726Z,845.00
2023-03-29T09:55:17.825Z,851.00
2023-03-29T09:56:17.706Z,845.00
2023-03-29T09:57:17.721Z,841.00
2023-03-29T09:58:17.709Z,840.00
2023-03-29T09:59:17.689Z,836.00
2023-03-29T10:00:17.682Z,826.00
2023-03-29T10:01:17.766Z,819.00
2023-03-29T10:02:17.678Z,816.00
2023-03-29T10:03:17.936Z,815.00
2023-03-29T10:04:18.023Z,815.00
2023-03-29T10:05:17.669Z,816.00
2023-03-29T10:06:17.682Z,815.00
2023-03-29T10:07:17.684Z,811.00
2023-03-29T10:08:19.462Z,807.00
2023-03-29T10:09:17.948Z,805.00
2023-03-29T10:10:17.757Z,808.00
2023-03-29T10:11:17.762Z,805.00
2023-03-29T10:12:17.809Z,802.00
2023-03-29T10:13:17.849Z,801.00
2023-03-29T10:14:17.859Z,798.00
2023-03-29T10:15:29.334Z,806.00
2023-03-29T10:16:18.942Z,812.00
2023-03-29T10:18:36.317Z,815.00
2023-03-29T10:19:36.517Z,796.00
2023-03-29T10:20:36.298Z,800.00
2023-03-29T10:21:36.296Z,778.00
2023-03-29T10:22:36.356Z,768.00
2023-03-29T10:23:36.412Z,788.00
2023-03-29T10:24:36.512Z,786.00
2023-03-29T10:25:36.490Z,788.00
2023-03-29T10:26:36.491Z,801.00
2023-03-29T10:27:36.537Z,839.00
2023-03-29T10:28:36.571Z,866.00
2023-03-29T10:29:36.621Z,875.00
2023-03-29T10:30:36.668Z,884.00
2023-03-29T10:31:36.784Z,887.00
2023-03-29T10:32:36.827Z,887.00
2023-03-29T10:33:36.827Z,891.00
2023-03-29T10:34:36.877Z,896.00
2023-03-29T10:35:36.962Z,903.00
2023-03-29T10:36:36.971Z,911.00
2023-03-29T10:37:37.011Z,934.00
2023-03-29T10:38:37.047Z,946.00
2023-03-29T10:39:37.064Z,942.00
2023-03-29T10:40:37.124Z,931.00
2023-03-29T10:41:37.147Z,925.00
2023-03-29T10:42:37.155Z,919.00
2023-03-29T10:43:37.213Z,916.00
2023-03-29T10:44:37.208Z,914.00
2023-03-29T10:45:37.221Z,911.00
2023-03-29T10:46:37.347Z,916.00
2023-03-29T10:47:37.288Z,918.00
2023-03-29T10:48:37.300Z,918.00
2023-03-29T10:49:37.331Z,920.00
2023-03-29T10:50:37.337Z,923.00
2023-03-29T10:51:37.371Z,926.00
2023-03-29T10:52:37.412Z,930.00
2023-03-29T10:53:37.419Z,932.00
2023-03-29T10:54:37.440Z,920.00
2023-03-29T10:55:37.478Z,921.00
2023-03-29T10:56:37.515Z,920.00
2023-03-29T10:57:37.764Z,915.00
2023-03-29T10:58:37.551Z,911.00
2023-03-29T10:59:38.046Z,905.00
2023-03-29T11:00:38.015Z,899.00
2023-03-29T11:01:37.762Z,897.00
2023-03-29T11:02:37.781Z,900.00
2023-03-29T11:03:37.882Z,896.00
2023-03-29T11:04:37.689Z,887.00
2023-03-29T11:05:37.719Z,877.00
2023-03-29T11:06:37.745Z,877.00
2023-03-29T11:07:37.764Z,878.00
2023-03-29T11:08:37.785Z,870.00
2023-03-29T11:09:37.799Z,901.00
2023-03-29T11:10:37.830Z,905.00
2023-03-29T11:11:37.870Z,920.00
2023-03-29T11:12:37.893Z,861.00
2023-03-29T11:13:37.916Z,870.00
2023-03-29T11:14:37.933Z,847.00
2023-03-29T11:15:38.051Z,786.00
2023-03-29T11:16:37.981Z,861.00
2023-03-29T11:17:38.070Z,866.00
2023-03-29T11:18:38.040Z,859.00
2023-03-29T11:19:38.044Z,844.00
2023-03-29T11:20:38.091Z,830.00
2023-03-29T11:21:38.130Z,814.00
2023-03-29T11:22:38.173Z,804.00
2023-03-29T11:23:38.205Z,799.00
2023-03-29T11:24:38.240Z,793.00
2023-03-29T11:25:38.277Z,785.00
2023-03-29T11:26:38.298Z,778.00
2023-03-29T11:27:38.343Z,768.00
2023-03-29T11:28:38.406Z,755.00
2023-03-29T11:29:38.456Z,745.00
2023-03-29T11:30:38.501Z,742.00
2023-03-29T11:31:39.249Z,741.00
2023-03-29T11:32:38.690Z,736.00
2023-03-29T11:33:38.679Z,731.00
2023-03-29T11:34:38.718Z,726.00
2023-03-29T11:35:38.828Z,719.00
2023-03-29T11:36:38.856Z,716.00
2023-03-29T11:37:38.876Z,711.00
2023-03-29T11:38:38.921Z,707.00
2023-03-29T11:39:38.989Z,704.00
2023-03-29T11:40:39.045Z,701.00
2023-03-29T11:41:39.103Z,693.00
2023-03-29T11:42:39.139Z,687.00
2023-03-29T11:43:39.205Z,684.00
2023-03-29T11:44:39.257Z,681.00
2023-03-29T11:45:39.323Z,677.00
2023-03-29T11:46:39.401Z,672.00
2023-03-29T11:47:39.489Z,667.00
2023-03-29T11:48:39.494Z,666.00
2023-03-29T11:49:39.583Z,667.00
2023-03-29T11:50:39.647Z,666.00
2023-03-29T11:51:39.705Z,661.00
2023-03-29T11:52:39.808Z,660.00
2023-03-29T11:53:39.812Z,656.00
2023-03-29T11:54:39.878Z,652.00
2023-03-29T11:55:40.066Z,651.00
2023-03-29T11:56:40.003Z,649.00
2023-03-29T11:57:40.064Z,646.00
2023-03-29T11:58:40.058Z,642.00
2023-03-29T11:59:40.121Z,640.00
2023-03-29T12:00:40.150Z,638.00
2023-03-29T12:01:40.236Z,638.00
2023-03-29T12:02:40.708Z,638.00
2023-03-29T12:03:40.416Z,635.00
2023-03-29T12:04:40.321Z,634.00
2023-03-29T12:05:40.357Z,631.00
2023-03-29T12:06:40.392Z,627.00
2023-03-29T12:07:40.449Z,626.00
2023-03-29T12:08:40.464Z,621.00
2023-03-29T12:09:40.493Z,618.00
2023-03-29T12:10:40.579Z,617.00
2023-03-29T12:11:40.568Z,617.00
2023-03-29T12:12:41.091Z,614.00
2023-03-29T12:13:40.620Z,610.00
2023-03-29T12:14:40.682Z,608.00
2023-03-29T12:15:40.693Z,605.00
2023-03-29T12:16:40.847Z,603.00
2023-03-29T12:17:40.811Z,599.00
2023-03-29T12:18:40.794Z,597.00
2023-03-29T12:19:43.321Z,595.00
2023-03-29T12:20:40.812Z,596.00
2023-03-29T12:21:40.821Z,595.00
2023-03-29T12:22:40.804Z,595.00
2023-03-29T12:23:40.797Z,594.00
2023-03-29T12:24:40.790Z,594.00
2023-03-29T12:25:40.782Z,595.00
2023-03-29T12:26:40.788Z,592.00
2023-03-29T12:27:40.775Z,767.00
2023-03-29T12:28:40.768Z,646.00
2023-03-29T12:29:40.772Z,614.00